createdAt,value
2022-12-18T00:02:45.140Z,19.00
2022-12-18T00:07:46.345Z,16.70
2022-12-18T00:12:47.396Z,15.10
2022-12-18T00:17:48.423Z,21.40
2022-12-18T00:22:49.640Z,20.70
2022-12-18T00:27:50.759Z,15.90
2022-12-18T00:32:51.951Z,15.20
2022-12-18T00:37:52.991Z,17.20
2022-12-18T00:42:58.852Z,18.70
2022-12-18T00:47:59.891Z,13.70
2022-12-18T00:53:01.244Z,18.30
2022-12-18T00:58:02.298Z,17.60
2022-12-18T01:03:04.013Z,19.10
2022-12-18T01:08:05.616Z,32.60
2022-12-18T01:13:06.883Z,33.50
2022-12-18T01:18:07.961Z,20.20
2022-12-18T01:23:08.973Z,19.10
2022-12-18T01:33:11.217Z,17.10
2022-12-18T01:38:12.227Z,19.20
2022-12-18T01:43:14.355Z,16.50
2022-12-18T01:48:15.608Z,21.80
2022-12-18T01:53:21.067Z,11.90
2022-12-18T01:58:34.782Z,35.10
2022-12-18T02:03:36.336Z,38.70
2022-12-18T02:08:56.356Z,22.20
2022-12-18T02:14:24.013Z,19.80
2022-12-18T02:19:49.684Z,10.50
2022-12-18T02:25:28.569Z,14.20
2022-12-18T02:30:32.276Z,17.00
2022-12-18T02:35:35.471Z,24.50
2022-12-18T02:40:39.245Z,18.40
2022-12-18T02:45:48.834Z,17.20
2022-12-18T02:51:29.057Z,12.10
2022-12-18T02:56:46.665Z,11.30
2022-12-18T03:02:12.664Z,10.10
2022-12-18T03:07:21.837Z,12.20
2022-12-18T03:12:34.145Z,9.80
2022-12-18T03:17:36.940Z,19.50
2022-12-18T03:22:40.373Z,23.60
2022-12-18T03:27:48.196Z,23.80
2022-12-18T03:32:59.979Z,24.60
2022-12-18T03:38:01.726Z,25.80
2022-12-18T03:43:11.186Z,25.40
2022-12-18T03:48:19.511Z,15.10
2022-12-18T03:53:31.441Z,20.40
2022-12-18T03:58:38.787Z,18.60
2022-12-18T04:03:42.961Z,25.50
2022-12-18T04:08:45.960Z,21.00
2022-12-18T04:13:47.163Z,18.80
2022-12-18T04:18:48.243Z,23.20
2022-12-18T04:23:49.589Z,22.90
2022-12-18T04:28:50.671Z,16.90
2022-12-18T04:33:51.800Z,19.70
2022-12-18T04:38:52.961Z,18.50
2022-12-18T04:43:54.076Z,32.70
2022-12-18T04:48:55.204Z,49.20
2022-12-18T04:53:58.027Z,44.10
2022-12-18T04:58:59.027Z,29.40
2022-12-18T05:04:00.676Z,17.70
2022-12-18T05:09:01.911Z,16.00
2022-12-18T05:14:03.565Z,20.90
2022-12-18T05:19:04.608Z,60.80
2022-12-18T05:24:06.032Z,53.90
2022-12-18T05:29:07.246Z,37.80
2022-12-18T05:34:08.308Z,33.20
2022-12-18T05:39:09.505Z,24.80
2022-12-18T05:44:10.554Z,30.50
2022-12-18T05:49:12.096Z,60.50
2022-12-18T05:54:13.231Z,46.20
2022-12-18T05:59:14.725Z,53.30
2022-12-18T06:04:15.890Z,38.40
2022-12-18T06:09:17.036Z,36.50
2022-12-18T06:14:18.509Z,33.40
2022-12-18T06:19:19.621Z,11.40
2022-12-18T06:24:20.655Z,61.70
2022-12-18T06:29:21.849Z,44.10
2022-12-18T06:34:23.332Z,77.00
2022-12-18T06:39:27.207Z,85.10
2022-12-18T06:44:28.254Z,47.90
2022-12-18T06:49:30.802Z,34.40
2022-12-18T06:54:31.874Z,41.10
2022-12-18T06:59:32.991Z,28.40
2022-12-18T07:04:34.151Z,44.70
2022-12-18T07:09:35.283Z,27.60
2022-12-18T07:14:36.284Z,54.20
2022-12-18T07:19:37.351Z,48.90
2022-12-18T07:24:38.413Z,26.10
2022-12-18T07:29:39.538Z,27.60
2022-12-18T07:34:41.031Z,29.40
2022-12-18T07:39:42.195Z,33.60
2022-12-18T07:44:43.712Z,39.60
2022-12-18T07:49:44.771Z,34.80
2022-12-18T07:54:46.105Z,32.80
2022-12-18T07:59:47.184Z,31.70
2022-12-18T08:04:48.282Z,40.20
2022-12-18T08:09:49.499Z,34.90
2022-12-18T08:19:51.870Z,23.60
2022-12-18T08:24:52.919Z,33.30
2022-12-18T08:29:53.956Z,36.30
2022-12-18T08:34:55.347Z,40.40
2022-12-18T08:39:56.374Z,38.50
2022-12-18T08:44:57.694Z,19.30
2022-12-18T09:05:03.569Z,50.90
2022-12-18T09:10:05.953Z,46.60
2022-12-18T09:15:08.714Z,36.80
2022-12-18T09:20:10.766Z,34.30
2022-12-18T09:25:12.203Z,39.80
2022-12-18T09:30:13.562Z,44.50
2022-12-18T09:35:14.618Z,43.20
2022-12-18T09:45:23.826Z,37.20
2022-12-18T09:50:33.286Z,39.50
2022-12-18T09:55:38.536Z,49.10
2022-12-18T10:00:41.456Z,47.20
2022-12-18T10:05:56.708Z,46.50
2022-12-18T10:11:03.451Z,25.00
2022-12-18T10:16:16.446Z,40.60
2022-12-18T10:21:24.900Z,32.60
2022-12-18T10:26:26.108Z,56.90
2022-12-18T10:31:27.650Z,53.40
2022-12-18T10:36:30.091Z,48.60
2022-12-18T10:41:32.480Z,54.50
2022-12-18T10:46:35.238Z,43.00
2022-12-18T10:51:38.173Z,60.50
2022-12-18T10:56:40.298Z,57.90
2022-12-18T11:01:47.306Z,48.10
2022-12-18T11:07:03.109Z,53.90
2022-12-18T11:12:25.108Z,31.40
2022-12-18T11:17:31.161Z,43.60
2022-12-18T11:22:36.328Z,54.40
2022-12-18T11:27:38.902Z,66.60
2022-12-18T11:32:43.917Z,59.90
2022-12-18T11:37:53.427Z,52.70
2022-12-18T11:43:26.344Z,54.50
2022-12-18T11:48:44.237Z,53.70
2022-12-18T11:53:45.447Z,59.20
2022-12-18T11:58:56.585Z,51.80
2022-12-18T12:04:08.916Z,57.50
2022-12-18T12:09:52.058Z,61.40
2022-12-18T12:14:55.984Z,63.10
2022-12-18T12:20:20.723Z,46.90
2022-12-18T12:25:45.018Z,55.40
2022-12-18T12:30:52.159Z,49.90
2022-12-18T12:36:10.238Z,52.80
2022-12-18T12:41:33.640Z,34.40
2022-12-18T12:46:39.620Z,64.50
2022-12-18T12:51:53.024Z,70.50
2022-12-18T12:57:20.174Z,48.30
2022-12-18T13:02:46.024Z,43.40
2022-12-18T13:07:56.172Z,42.70
2022-12-18T13:13:07.112Z,47.80
2022-12-18T13:18:09.905Z,45.90
2022-12-18T13:23:34.729Z,75.80
2022-12-18T13:28:55.724Z,71.10
2022-12-18T13:39:35.759Z,41.10
2022-12-18T13:44:43.585Z,54.60
2022-12-18T13:49:44.692Z,25.50
2022-12-18T13:54:51.626Z,49.90
2022-12-18T13:59:53.452Z,68.60
2022-12-18T14:04:55.434Z,27.90
2022-12-18T14:10:18.633Z,52.50
2022-12-18T14:15:42.452Z,33.60
2022-12-18T14:20:52.594Z,57.40
2022-12-18T14:25:55.121Z,84.00
2022-12-18T14:31:03.004Z,32.40
2022-12-18T14:36:07.720Z,45.20
2022-12-18T14:41:18.451Z,53.00
2022-12-18T14:46:29.597Z,77.30
2022-12-18T14:51:35.769Z,52.80
2022-12-18T14:57:01.060Z,43.30
2022-12-18T15:02:26.531Z,23.10
2022-12-18T15:07:43.632Z,48.80
2022-12-18T15:12:50.727Z,75.70
2022-12-18T15:18:18.161Z,71.90
2022-12-18T15:23:22.968Z,37.50
2022-12-18T15:28:29.446Z,44.60
2022-12-18T15:33:36.962Z,46.50
2022-12-18T15:38:40.697Z,38.80
2022-12-18T15:43:43.253Z,18.10
2022-12-18T15:49:03.547Z,51.40
2022-12-18T15:54:13.115Z,40.80
2022-12-18T15:59:19.575Z,32.30
2022-12-18T16:04:22.443Z,32.00
2022-12-18T16:09:28.409Z,46.10
2022-12-18T16:14:31.539Z,46.20
2022-12-18T16:19:32.652Z,35.30
2022-12-18T16:24:36.380Z,38.20
2022-12-18T16:29:37.583Z,42.10
2022-12-18T16:34:39.113Z,34.10
2022-12-18T16:39:41.064Z,51.70
2022-12-18T16:44:43.436Z,39.10
2022-12-18T16:49:46.667Z,30.60
2022-12-18T16:54:48.315Z,31.60
2022-12-18T16:59:49.505Z,28.70
2022-12-18T17:04:53.761Z,41.50
2022-12-18T17:09:55.245Z,28.70
2022-12-18T17:14:57.295Z,28.90
2022-12-18T17:20:01.633Z,46.70
2022-12-18T17:25:03.250Z,43.40
2022-12-18T17:30:07.407Z,31.20
2022-12-18T17:35:08.921Z,28.80
2022-12-18T17:40:10.402Z,23.30
2022-12-18T17:45:11.415Z,26.10
2022-12-18T17:50:12.545Z,27.90
2022-12-18T17:55:17.279Z,45.90
2022-12-18T18:00:19.332Z,29.20
2022-12-18T18:05:20.624Z,18.10
2022-12-18T18:10:22.826Z,51.00
2022-12-18T18:15:23.948Z,52.10
2022-12-18T18:20:25.037Z,34.20
2022-12-18T18:25:26.070Z,28.00
2022-12-18T18:30:27.764Z,21.50
2022-12-18T18:35:52.817Z,37.30
2022-12-18T18:41:09.562Z,30.50
2022-12-18T18:46:13.816Z,29.10
2022-12-18T18:51:21.160Z,26.90
2022-12-18T18:56:50.253Z,55.50
2022-12-18T19:01:48.308Z,58.60
2022-12-18T19:06:49.512Z,43.80
2022-12-18T19:12:09.622Z,43.70
2022-12-18T19:17:10.773Z,38.60
2022-12-18T19:22:12.083Z,42.60
2022-12-18T19:27:13.167Z,32.20
2022-12-18T19:32:14.317Z,41.50
2022-12-18T19:37:15.476Z,65.40
2022-12-18T19:42:21.504Z,50.00
2022-12-18T19:47:29.464Z,50.20
2022-12-18T19:52:31.477Z,39.70
2022-12-18T19:57:32.656Z,39.90
2022-12-18T20:02:39.128Z,46.50
2022-12-18T20:07:51.614Z,38.50
2022-12-18T20:12:53.289Z,44.60
2022-12-18T20:17:56.025Z,39.40
2022-12-18T20:22:58.885Z,40.40
2022-12-18T20:28:00.567Z,39.60
2022-12-18T20:33:02.499Z,46.80
2022-12-18T20:38:05.110Z,43.20
2022-12-18T20:43:09.538Z,56.70
2022-12-18T20:48:13.526Z,39.30
2022-12-18T20:53:14.947Z,47.60
2022-12-18T20:58:16.576Z,52.30
2022-12-18T21:03:19.415Z,53.80
2022-12-18T21:08:20.631Z,54.00
2022-12-18T21:13:21.785Z,67.20
2022-12-18T21:18:22.892Z,45.80
2022-12-18T21:23:24.064Z,41.90
2022-12-18T21:28:25.970Z,46.40
2022-12-18T21:33:27.242Z,47.20
2022-12-18T21:38:28.584Z,42.20
2022-12-18T21:43:47.807Z,50.70
2022-12-18T21:48:48.834Z,41.40
2022-12-18T21:53:49.849Z,45.40
2022-12-18T21:58:55.433Z,40.40
2022-12-18T22:03:58.429Z,51.30
2022-12-18T22:09:00.552Z,39.50
2022-12-18T22:14:01.716Z,45.60
2022-12-18T22:19:02.899Z,39.90
2022-12-18T22:24:06.525Z,32.00
2022-12-18T22:29:32.923Z,30.60
2022-12-18T22:34:36.897Z,48.30
2022-12-18T22:39:39.664Z,22.40
2022-12-18T22:44:41.036Z,36.90
2022-12-18T22:49:43.211Z,33.00
2022-12-18T22:54:45.659Z,43.70
2022-12-18T22:59:47.008Z,41.30
2022-12-18T23:04:48.631Z,31.30
2022-12-18T23:09:50.046Z,31.20
2022-12-18T23:14:52.409Z,36.70
2022-12-18T23:19:53.528Z,35.60
2022-12-18T23:24:54.564Z,33.90
2022-12-18T23:29:55.860Z,20.20
2022-12-18T23:34:59.781Z,32.20
2022-12-18T23:40:00.856Z,33.30
2022-12-18T23:45:16.628Z,24.10
2022-12-18T23:50:19.409Z,27.60
2022-12-18T23:55:28.924Z,45.70
